Terminal Aerodrome Forecast
Issued by NWS

Home | Current Version | Previous Version | Text Only | Print | Product List | Glossary On
Versions: 1 2 3 4 5 6 7 8 9 10 11 12 13 14 15 16 17 18 19 20
000
FTUS43 KBIS 251100
TAFMOT
TAF
KMOT 251126Z 2512/2612 29011KT P6SM BKN013 OVC025
      TEMPO 2512/2515 BKN009 OVC013
     FM251500 31016KT P6SM -SHSN BKN009 OVC012
     FM251800 31016KT P6SM -SHSN OVC015
     FM260100 32012KT P6SM SCT015 BKN035
     FM260900 32006KT P6SM SCT035=

USA.gov is the U.S. government's official web portal to all federal, state and local government web resources and services.